createdAt,value
2017-06-28T00:00:04.985Z,90.67
2017-06-28T00:01:05.015Z,90.39
2017-06-28T00:02:05.051Z,90.72
2017-06-28T00:03:05.092Z,90.91
2017-06-28T00:04:05.116Z,91.05
2017-06-28T00:05:05.137Z,91.01
2017-06-28T00:06:05.427Z,90.34
2017-06-28T00:07:05.216Z,90.91
2017-06-28T00:08:05.248Z,91.2
2017-06-28T00:09:05.279Z,91.58
2017-06-28T00:10:05.321Z,91.3
2017-06-28T00:11:05.343Z,90.72
2017-06-28T00:12:05.380Z,91.11
2017-06-28T00:13:05.415Z,91.01
2017-06-28T00:14:05.451Z,91.11
2017-06-28T00:15:05.463Z,91.11
2017-06-28T00:16:05.518Z,91.01
2017-06-28T00:17:05.552Z,90.63
2017-06-28T00:18:05.589Z,91.3
2017-06-28T00:19:05.613Z,91.3
2017-06-28T00:20:05.652Z,91.39
2017-06-28T00:21:05.682Z,90.72
2017-06-28T00:22:05.716Z,90.53
2017-06-28T00:23:05.730Z,91.2
2017-06-28T00:24:05.808Z,91.3
2017-06-28T00:25:05.806Z,91.01
2017-06-28T00:26:05.852Z,91.49
2017-06-28T00:27:05.881Z,91.68
2017-06-28T00:28:05.921Z,91.58
2017-06-28T00:29:05.967Z,91.58
2017-06-28T00:30:05.972Z,92.06
2017-06-28T00:31:06.016Z,92.44
2017-06-28T00:32:06.053Z,91.39
2017-06-28T00:33:06.090Z,91.49
2017-06-28T00:34:06.131Z,92.16
2017-06-28T00:35:06.154Z,91.49
2017-06-28T00:36:06.181Z,91.68
2017-06-28T00:37:06.225Z,91.39
2017-06-28T00:38:06.256Z,91.58
2017-06-28T00:39:06.286Z,91.39
2017-06-28T00:40:06.529Z,91.2
2017-06-28T00:41:06.338Z,91.2
2017-06-28T00:42:06.383Z,91.3
2017-06-28T00:43:06.420Z,91.68
2017-06-28T00:44:06.548Z,91.2
2017-06-28T00:45:06.512Z,91.58
2017-06-28T00:46:06.498Z,91.68
2017-06-28T00:47:06.571Z,91.3
2017-06-28T00:48:06.604Z,91.3
2017-06-28T00:49:06.865Z,91.2
2017-06-28T00:50:06.896Z,91.58
2017-06-28T00:51:06.714Z,91.39
2017-06-28T00:52:06.718Z,91.39
2017-06-28T00:53:06.741Z,91.39
2017-06-28T00:54:06.784Z,91.39
2017-06-28T00:55:07.009Z,91.49
2017-06-28T00:56:06.864Z,91.68
2017-06-28T00:57:06.885Z,90.72
2017-06-28T00:58:07.003Z,90.82
2017-06-28T00:59:06.948Z,91.11
2017-06-28T01:00:07.236Z,91.49
2017-06-28T01:01:07.014Z,91.97
2017-06-28T01:02:07.054Z,91.77
2017-06-28T01:03:07.082Z,91.58
2017-06-28T01:04:07.127Z,91.68
2017-06-28T01:05:07.160Z,91.58
2017-06-28T01:06:07.302Z,91.39
2017-06-28T01:07:07.222Z,91.2
2017-06-28T01:08:07.240Z,91.3
2017-06-28T01:09:07.285Z,91.39
2017-06-28T01:10:07.592Z,91.2
2017-06-28T01:11:07.348Z,91.11
2017-06-28T01:12:07.426Z,91.39
2017-06-28T01:13:07.416Z,90.91
2017-06-28T01:14:07.428Z,90.82
2017-06-28T01:15:07.479Z,90.72
2017-06-28T01:16:07.515Z,90.72
2017-06-28T01:17:07.571Z,91.2
2017-06-28T01:18:07.623Z,90.91
2017-06-28T01:19:07.602Z,91.11
2017-06-28T01:20:07.643Z,91.06
2017-06-28T01:21:07.678Z,90.91
2017-06-28T01:22:07.918Z,91.01
2017-06-28T01:23:07.744Z,91.3
2017-06-28T01:24:07.782Z,90.63
2017-06-28T01:25:07.816Z,90.96
2017-06-28T01:26:07.847Z,90.44
2017-06-28T01:27:07.880Z,91.01
2017-06-28T01:28:07.915Z,91.01
2017-06-28T01:29:07.943Z,90.91
2017-06-28T01:30:07.976Z,90.44
2017-06-28T01:31:08.021Z,90.53
2017-06-28T01:32:08.031Z,90.34
2017-06-28T01:33:08.077Z,90.53
2017-06-28T01:34:08.112Z,90.2
2017-06-28T01:35:08.141Z,90.58
2017-06-28T01:36:08.164Z,90.48
2017-06-28T01:37:08.213Z,90.67
2017-06-28T01:38:08.235Z,90.48
2017-06-28T01:39:08.276Z,90.39
2017-06-28T01:40:08.294Z,90.39
2017-06-28T01:41:08.321Z,90.39
2017-06-28T01:42:08.376Z,90.87
2017-06-28T01:43:08.405Z,90.77
2017-06-28T01:44:08.432Z,90.96
2017-06-28T01:45:08.472Z,90.87
2017-06-28T01:46:08.502Z,90.39
2017-06-28T01:47:08.534Z,90.39
2017-06-28T01:48:08.572Z,90.3
2017-06-28T01:49:08.605Z,90.48
2017-06-28T01:50:08.641Z,90.58
2017-06-28T01:51:08.668Z,90.39
2017-06-28T01:52:08.702Z,90.58
2017-06-28T01:53:08.735Z,90.2
2017-06-28T01:54:08.774Z,90.39
2017-06-28T01:55:08.807Z,90.48
2017-06-28T01:56:08.836Z,90.39
2017-06-28T01:57:08.874Z,90.3
2017-06-28T01:58:08.905Z,90.48
2017-06-28T01:59:08.938Z,90.39
2017-06-28T02:00:09.079Z,90.39
2017-06-28T02:01:09.002Z,90.96
2017-06-28T02:02:09.020Z,90.96
2017-06-28T02:03:09.071Z,90.39
2017-06-28T02:04:09.102Z,90.58
2017-06-28T02:05:09.131Z,90.77
2017-06-28T02:06:09.165Z,90.96
2017-06-28T02:07:09.199Z,90.87
2017-06-28T02:08:09.235Z,90.77
2017-06-28T02:09:09.271Z,90.77
2017-06-28T02:10:09.396Z,90.87
2017-06-28T02:11:09.338Z,90.96
2017-06-28T02:12:09.331Z,91.16
2017-06-28T02:13:09.400Z,91.06
2017-06-28T02:14:09.432Z,90.87
2017-06-28T02:15:09.541Z,90.77
2017-06-28T02:16:09.490Z,90.67
2017-06-28T02:17:09.533Z,90.67
2017-06-28T02:18:09.564Z,90.39
2017-06-28T02:19:09.593Z,90.67
2017-06-28T02:20:09.624Z,90.58
2017-06-28T02:21:09.660Z,90.48
2017-06-28T02:22:09.682Z,90.58
2017-06-28T02:23:09.730Z,90.67
2017-06-28T02:24:09.733Z,90.48
2017-06-28T02:25:09.795Z,90.58
2017-06-28T02:26:09.822Z,90.3
2017-06-28T02:27:09.830Z,90.39
2017-06-28T02:28:09.891Z,90.01
2017-06-28T02:29:09.923Z,89.81
2017-06-28T02:30:09.935Z,90.1
2017-06-28T02:31:09.970Z,89.72
2017-06-28T02:32:10.027Z,89.91
2017-06-28T02:33:10.040Z,89.81
2017-06-28T02:34:10.091Z,90.01
2017-06-28T02:35:10.117Z,89.43
2017-06-28T02:36:10.142Z,89.43
2017-06-28T02:37:10.188Z,89.72
2017-06-28T02:38:10.218Z,90.01
2017-06-28T02:39:10.233Z,89.81
2017-06-28T02:40:10.290Z,89.81
2017-06-28T02:41:10.316Z,89.72
2017-06-28T02:42:10.349Z,89.67
2017-06-28T02:43:10.411Z,89.86
2017-06-28T02:44:10.418Z,89.09
2017-06-28T02:45:10.445Z,89.19
2017-06-28T02:46:10.484Z,89.29
2017-06-28T02:47:10.513Z,88.43
2017-06-28T02:48:10.546Z,88.81
2017-06-28T02:49:10.557Z,88.62
2017-06-28T02:50:10.617Z,88.52
2017-06-28T02:51:10.645Z,88.62
2017-06-28T02:52:10.683Z,88.43
2017-06-28T02:53:10.714Z,88.62
2017-06-28T02:54:10.749Z,88.13
2017-06-28T02:55:10.775Z,88.04
2017-06-28T02:56:10.813Z,87.76
2017-06-28T02:57:10.845Z,88.43
2017-06-28T02:58:10.877Z,87.47
2017-06-28T02:59:10.911Z,87.76
2017-06-28T03:00:11.146Z,87.66
2017-06-28T03:01:10.974Z,87.56
2017-06-28T03:02:11.005Z,87.66
2017-06-28T03:03:11.048Z,87.76
2017-06-28T03:04:11.051Z,87.56
2017-06-28T03:05:11.089Z,87.56
2017-06-28T03:06:11.143Z,87.56
2017-06-28T03:07:11.175Z,87.66
2017-06-28T03:08:11.204Z,87.56
2017-06-28T03:09:11.243Z,87.56
2017-06-28T03:10:11.249Z,87.66
2017-06-28T03:11:11.307Z,87.56
2017-06-28T03:12:11.345Z,87.56
2017-06-28T03:13:11.414Z,87.37
2017-06-28T03:14:11.396Z,87.23
2017-06-28T03:15:11.445Z,87.32
2017-06-28T03:16:11.455Z,87.32
2017-06-28T03:17:11.485Z,87.61
2017-06-28T03:18:11.542Z,87.41
2017-06-28T03:19:11.575Z,86.94
2017-06-28T03:20:11.630Z,87.23
2017-06-28T03:21:11.647Z,87.13
2017-06-28T03:22:11.654Z,86.84
2017-06-28T03:23:11.693Z,87.13
2017-06-28T03:24:11.724Z,86.84
2017-06-28T03:25:11.767Z,86.84
2017-06-28T03:26:13.215Z,87.13
2017-06-28T03:27:13.381Z,87.13
2017-06-28T03:28:11.905Z,86.65
2017-06-28T03:29:11.903Z,86.94
2017-06-28T03:30:12.560Z,86.36
2017-06-28T03:31:11.968Z,86.36
2017-06-28T03:32:12.001Z,86.46
2017-06-28T03:33:12.016Z,86.74
2017-06-28T03:34:12.072Z,86.74
2017-06-28T03:35:12.098Z,86.17
2017-06-28T03:36:12.134Z,85.98
2017-06-28T03:37:12.155Z,86.27
2017-06-28T03:38:12.199Z,86.36
2017-06-28T03:39:12.230Z,86.36
2017-06-28T03:40:12.271Z,86.17
2017-06-28T03:41:12.303Z,86.36
2017-06-28T03:42:12.314Z,86.27
2017-06-28T03:43:12.363Z,86.36
2017-06-28T03:44:12.404Z,86.55
2017-06-28T03:45:12.453Z,86.17
2017-06-28T03:46:12.470Z,86.17
2017-06-28T03:47:12.499Z,86.08
2017-06-28T03:48:12.534Z,86.27
2017-06-28T03:49:12.556Z,85.79
2017-06-28T03:50:12.601Z,86.08
2017-06-28T03:51:12.625Z,86.46
2017-06-28T03:52:12.667Z,86.17
2017-06-28T03:53:12.674Z,86.36
2017-06-28T03:54:12.734Z,86.17
2017-06-28T03:55:12.757Z,86.36
2017-06-28T03:56:12.798Z,86.84
2017-06-28T03:57:12.828Z,86.84
2017-06-28T03:58:12.869Z,86.74
2017-06-28T03:59:12.899Z,86.46
2017-06-28T04:00:31.152Z,86.36
2017-06-28T04:01:18.442Z,86.65
2017-06-28T04:02:18.484Z,86.65
2017-06-28T04:03:18.530Z,86.36
2017-06-28T04:04:18.566Z,86.17
2017-06-28T04:05:18.594Z,86.36
2017-06-28T04:06:18.627Z,86.46
2017-06-28T04:07:18.671Z,87.13
2017-06-28T04:08:18.718Z,86.36
2017-06-28T04:09:18.707Z,87.13
2017-06-28T04:10:18.786Z,87.23
2017-06-28T04:11:18.794Z,87.23
2017-06-28T04:12:18.829Z,87.23
2017-06-28T04:13:18.978Z,87.23
2017-06-28T04:14:18.920Z,87.03
2017-06-28T04:15:18.929Z,87.03
2017-06-28T04:16:18.986Z,85.98
2017-06-28T04:17:18.991Z,85.83
2017-06-28T04:18:19.051Z,84.72
2017-06-28T04:19:19.041Z,82.56
2017-06-28T04:20:19.105Z,81.45
2017-06-28T04:21:19.150Z,80.15
2017-06-28T04:22:19.168Z,78.8
2017-06-28T04:23:19.171Z,78.32
2017-06-28T04:24:19.237Z,78.17
2017-06-28T04:25:19.244Z,77.4
2017-06-28T04:26:19.315Z,77.31
2017-06-28T04:27:19.362Z,76.73
2017-06-28T04:28:19.375Z,76.29
2017-06-28T04:29:19.414Z,74.6
2017-06-28T04:30:19.426Z,72.13
2017-06-28T04:31:19.475Z,71.14
2017-06-28T04:32:19.540Z,70.31
2017-06-28T04:33:19.534Z,69.64
2017-06-28T04:34:19.567Z,69.73
2017-06-28T04:35:19.619Z,70.41
2017-06-28T04:36:19.681Z,71.43
2017-06-28T04:37:19.680Z,72.17
2017-06-28T04:38:19.749Z,73.57
2017-06-28T04:39:19.773Z,74.4
2017-06-28T04:40:19.803Z,75.71
2017-06-28T04:41:19.836Z,76.48
2017-06-28T04:42:19.872Z,76.92
2017-06-28T04:43:19.914Z,77.5
2017-06-28T04:44:19.927Z,77.69
2017-06-28T04:45:19.984Z,78.23
2017-06-28T04:46:20.040Z,78.03
2017-06-28T04:47:20.059Z,77.88
2017-06-28T04:48:20.097Z,77.4
2017-06-28T04:49:20.131Z,76.92
2017-06-28T04:50:20.172Z,76.57
2017-06-28T04:51:20.182Z,75.46
2017-06-28T04:52:20.214Z,76.23
2017-06-28T04:53:20.301Z,76.09
2017-06-28T04:54:20.309Z,76.29
2017-06-28T04:55:20.371Z,76.86
2017-06-28T04:56:20.378Z,76.86
2017-06-28T04:57:20.422Z,76.96
2017-06-28T04:58:20.459Z,77.15
2017-06-28T04:59:20.490Z,76.96
2017-06-28T05:00:26.273Z,76.73
2017-06-28T05:01:20.543Z,77.21
2017-06-28T05:02:20.570Z,76.96
2017-06-28T05:03:20.615Z,76.86
2017-06-28T05:04:21.599Z,76.96
2017-06-28T05:05:22.358Z,76.48
2017-06-28T05:06:21.228Z,76.23
2017-06-28T05:07:20.998Z,75.94
2017-06-28T05:08:20.823Z,75.84
2017-06-28T05:09:20.829Z,76.61
2017-06-28T05:10:20.867Z,76.57
2017-06-28T05:11:20.928Z,76.96
2017-06-28T05:12:20.966Z,76.48
2017-06-28T05:13:21.000Z,76.23
2017-06-28T05:14:21.014Z,75.75
2017-06-28T05:15:21.071Z,75.49
2017-06-28T05:16:21.110Z,74.92
2017-06-28T05:17:21.127Z,74.54
2017-06-28T05:18:21.200Z,74.09
2017-06-28T05:19:21.222Z,73.71
2017-06-28T05:20:21.445Z,72.94
2017-06-28T05:21:21.288Z,72.11
2017-06-28T05:22:21.331Z,70.79
2017-06-28T05:23:21.364Z,70.35
2017-06-28T05:24:21.382Z,70.44
2017-06-28T05:25:21.459Z,70.6
2017-06-28T05:26:21.454Z,71.47
2017-06-28T05:27:21.510Z,72.05
2017-06-28T05:28:21.551Z,71.91
2017-06-28T05:29:21.589Z,72.78
2017-06-28T05:30:22.400Z,72.88
2017-06-28T05:31:21.646Z,73.32
2017-06-28T05:32:21.723Z,73.71
2017-06-28T05:33:21.716Z,74.19
2017-06-28T05:34:21.767Z,73.86
2017-06-28T05:35:21.820Z,74.92
2017-06-28T05:36:21.854Z,75.11
2017-06-28T05:37:21.865Z,74.82
2017-06-28T05:38:21.905Z,73.61
2017-06-28T05:39:21.946Z,72.94
2017-06-28T05:40:21.995Z,71.62
2017-06-28T05:41:22.014Z,71.37
2017-06-28T05:42:22.070Z,71.37
2017-06-28T05:43:22.108Z,71.85
2017-06-28T05:44:22.158Z,72.68
2017-06-28T05:45:22.184Z,72.97
2017-06-28T05:46:22.214Z,73.51
2017-06-28T05:47:22.235Z,74.09
2017-06-28T05:48:22.294Z,74.67
2017-06-28T05:49:22.338Z,74.96
2017-06-28T05:50:22.397Z,74.57
2017-06-28T05:51:22.389Z,74.57
2017-06-28T05:52:22.646Z,74.76
2017-06-28T05:53:22.479Z,73.9
2017-06-28T05:54:22.513Z,73.74
2017-06-28T05:55:22.551Z,73.65
2017-06-28T05:56:22.591Z,73.26
2017-06-28T05:57:22.602Z,73.36
2017-06-28T05:58:22.662Z,73.74
2017-06-28T05:59:22.676Z,72.88
2017-06-28T06:00:22.713Z,73.36
2017-06-28T06:01:22.795Z,73.46
2017-06-28T06:02:22.786Z,73.36
2017-06-28T06:03:22.840Z,73.36
2017-06-28T06:04:22.866Z,73.3
2017-06-28T06:05:22.900Z,73.01
2017-06-28T06:06:22.957Z,72.72
2017-06-28T06:07:22.968Z,72.81
2017-06-28T06:08:23.019Z,72.91
2017-06-28T06:09:23.025Z,72.91
2017-06-28T06:10:23.118Z,72.47
2017-06-28T06:11:23.157Z,71.5
2017-06-28T06:12:23.149Z,70.48
2017-06-28T06:13:23.195Z,70.28
2017-06-28T06:14:23.273Z,70
2017-06-28T06:15:23.290Z,70.48
2017-06-28T06:16:23.302Z,70.38
2017-06-28T06:17:23.340Z,70.48
2017-06-28T06:18:23.394Z,68.97
2017-06-28T06:19:23.454Z,67.3
2017-06-28T06:20:23.471Z,65.11
2017-06-28T06:21:23.507Z,63.63
2017-06-28T06:22:23.521Z,62.88
2017-06-28T06:23:23.611Z,61.76
2017-06-28T06:24:23.622Z,60.55
2017-06-28T06:25:23.662Z,58.77
2017-06-28T06:26:23.727Z,57.34
2017-06-28T06:27:23.717Z,55.75
2017-06-28T06:28:23.804Z,53.57
2017-06-28T06:29:23.800Z,52.92
2017-06-28T06:30:23.829Z,52.55
2017-06-28T06:31:23.883Z,51.51
2017-06-28T06:32:23.963Z,51.53
2017-06-28T06:33:23.963Z,50.58
2017-06-28T06:34:24.024Z,50.68
2017-06-28T06:35:24.059Z,50.29
2017-06-28T06:36:24.096Z,50.19
2017-06-28T06:37:24.143Z,49.9
2017-06-28T06:38:24.177Z,49.99
2017-06-28T06:39:24.225Z,49.99
2017-06-28T06:40:24.309Z,49.8
2017-06-28T06:41:24.307Z,49.51
2017-06-28T06:42:24.329Z,49.63
2017-06-28T06:43:24.407Z,49.27
2017-06-28T06:44:24.435Z,48.71
2017-06-28T06:45:24.456Z,47.66
2017-06-28T06:46:24.511Z,46.89
2017-06-28T06:47:24.555Z,46.45
2017-06-28T06:48:24.622Z,46.55
2017-06-28T06:49:24.627Z,46.55
2017-06-28T06:50:24.660Z,46.18
2017-06-28T06:51:24.748Z,45.79
2017-06-28T06:52:24.744Z,45.79
2017-06-28T06:53:24.812Z,45.52
2017-06-28T06:54:24.892Z,45.34
2017-06-28T06:55:24.884Z,44.48
2017-06-28T06:56:25.169Z,44.31
2017-06-28T06:57:24.959Z,43.62
2017-06-28T06:58:25.048Z,43.35
2017-06-28T06:59:25.038Z,42.98
2017-06-28T07:00:25.107Z,43
2017-06-28T07:01:25.152Z,42.71
2017-06-28T07:02:25.207Z,41.92
2017-06-28T07:03:25.226Z,42.21
2017-06-28T07:04:25.257Z,43.32
2017-06-28T07:05:25.338Z,43.19
2017-06-28T07:06:25.345Z,43.18
2017-06-28T07:07:25.428Z,43.08
2017-06-28T07:08:25.441Z,43.08
2017-06-28T07:09:25.478Z,42.98
2017-06-28T07:10:25.542Z,42.11
2017-06-28T07:11:25.588Z,43.18
2017-06-28T07:12:25.650Z,45.04
2017-06-28T07:13:25.652Z,45.09
2017-06-28T07:14:25.748Z,44.95
2017-06-28T07:15:25.755Z,46.03
2017-06-28T07:16:25.786Z,45.54
2017-06-28T07:17:25.872Z,45.34
2017-06-28T07:18:25.896Z,45.25
2017-06-28T07:19:25.965Z,45.44
2017-06-28T07:20:26.003Z,45.17
2017-06-28T07:21:27.678Z,44.51
2017-06-28T07:22:26.045Z,45.09
2017-06-28T07:23:26.087Z,45.29
2017-06-28T07:24:26.161Z,45.66
2017-06-28T07:25:26.211Z,46.3
2017-06-28T07:26:26.220Z,46.67
2017-06-28T07:27:26.308Z,46.77
2017-06-28T07:28:26.311Z,46.5
2017-06-28T07:29:26.354Z,46.23
2017-06-28T07:30:26.397Z,46.03
2017-06-28T07:31:26.442Z,45.56
2017-06-28T07:32:26.521Z,45.09
2017-06-28T07:33:26.547Z,45.51
2017-06-28T07:34:26.565Z,45.39
2017-06-28T07:35:26.613Z,45.09
2017-06-28T07:36:26.682Z,45.21
2017-06-28T07:37:26.765Z,44.43
2017-06-28T07:38:26.741Z,44.53
2017-06-28T07:39:26.808Z,44.73
2017-06-28T07:40:26.845Z,44.45
2017-06-28T07:41:26.923Z,44.08
2017-06-28T07:42:26.919Z,44.26
2017-06-28T07:43:26.946Z,44.06
2017-06-28T07:44:27.033Z,43.57
2017-06-28T07:45:27.057Z,43.12
2017-06-28T07:46:27.116Z,42.55
2017-06-28T07:47:27.165Z,41.02
2017-06-28T07:48:27.157Z,40.84
2017-06-28T07:49:27.247Z,41.24
2017-06-28T07:50:27.272Z,41.33
2017-06-28T07:51:27.357Z,41.61
2017-06-28T07:52:27.348Z,41.78
2017-06-28T07:53:27.419Z,42.86
2017-06-28T07:54:27.447Z,42.18
2017-06-28T07:55:27.535Z,42.28
2017-06-28T07:56:27.558Z,42.82
2017-06-28T07:57:27.581Z,42.53
2017-06-28T07:58:27.624Z,42.53
2017-06-28T07:59:27.695Z,42.28
2017-06-28T08:00:27.733Z,41.39
2017-06-28T08:01:27.772Z,41.11
2017-06-28T08:02:27.835Z,42.22
2017-06-28T08:03:27.857Z,42.18
2017-06-28T08:04:27.890Z,44.27
2017-06-28T08:05:27.964Z,44.33
2017-06-28T08:06:28.026Z,45.21
2017-06-28T08:07:28.049Z,44.53
2017-06-28T08:08:28.093Z,43.86
2017-06-28T08:09:28.115Z,43.47
2017-06-28T08:10:28.181Z,42.9
2017-06-28T08:11:28.229Z,42.28
2017-06-28T08:12:28.271Z,41.9
2017-06-28T08:13:28.314Z,41.25
2017-06-28T08:14:28.439Z,40.66
2017-06-28T08:15:28.404Z,40.51
2017-06-28T08:16:28.454Z,38.87
2017-06-28T08:17:28.479Z,38.79
2017-06-28T08:18:28.540Z,37.84
2017-06-28T08:19:28.559Z,38.23
2017-06-28T08:20:28.609Z,39.03
2017-06-28T08:21:28.662Z,39.28
2017-06-28T08:22:28.725Z,39.72
2017-06-28T08:23:28.748Z,40.64
2017-06-28T08:24:28.788Z,41.51
2017-06-28T08:25:28.839Z,41.78
2017-06-28T08:26:28.906Z,42.38
2017-06-28T08:27:28.928Z,43.04
2017-06-28T08:28:28.995Z,43.29
2017-06-28T08:29:29.041Z,43.39
2017-06-28T08:30:29.083Z,42.43
2017-06-28T08:31:29.131Z,41.39
2017-06-28T08:32:29.188Z,40.64
2017-06-28T08:33:29.250Z,40.88
2017-06-28T08:34:29.253Z,40.63
2017-06-28T08:35:29.318Z,38.98
2017-06-28T08:36:29.340Z,39.28
2017-06-28T08:37:29.425Z,39.64
2017-06-28T08:38:29.451Z,39.81
2017-06-28T08:39:29.475Z,39.89
2017-06-28T08:40:29.545Z,41.2
2017-06-28T08:41:29.570Z,40.51
2017-06-28T08:42:29.632Z,40.11
2017-06-28T08:43:29.668Z,39.42
2017-06-28T08:44:29.749Z,39.64
2017-06-28T08:45:29.774Z,39.46
2017-06-28T08:46:29.816Z,40.51
2017-06-28T08:47:29.883Z,41.75
2017-06-28T08:48:29.928Z,41.98
2017-06-28T08:49:29.979Z,42.3
2017-06-28T08:50:30.030Z,41.71
2017-06-28T08:51:30.049Z,41.24
2017-06-28T08:52:30.094Z,41.35
2017-06-28T08:53:30.147Z,41.45
2017-06-28T08:54:30.160Z,40.48
2017-06-28T08:55:30.214Z,40.8
2017-06-28T08:56:30.263Z,40.69
2017-06-28T08:57:30.344Z,40.78
2017-06-28T08:58:30.392Z,41.55
2017-06-28T08:59:30.411Z,41.47
2017-06-28T09:00:30.486Z,41.17
2017-06-28T09:01:30.515Z,41.2
2017-06-28T09:02:30.558Z,41.27
2017-06-28T09:03:30.576Z,41.27
2017-06-28T09:04:30.731Z,40.31
2017-06-28T09:05:30.699Z,39.95
2017-06-28T09:06:30.744Z,38.71
2017-06-28T09:07:30.769Z,38.55
2017-06-28T09:08:30.814Z,39.38
2017-06-28T09:09:30.886Z,40.43
2017-06-28T09:10:30.945Z,41.85
2017-06-28T09:11:30.981Z,42.1
2017-06-28T09:12:31.091Z,43.36
2017-06-28T09:13:31.073Z,42.67
2017-06-28T09:14:31.106Z,41.93
2017-06-28T09:15:31.163Z,40.31
2017-06-28T09:16:31.196Z,39.38
2017-06-28T09:17:31.253Z,39
2017-06-28T09:18:31.284Z,39.11
2017-06-28T09:19:31.329Z,39.42
2017-06-28T09:20:31.399Z,39.78
2017-06-28T09:21:31.419Z,39.68
2017-06-28T09:22:31.487Z,39.58
2017-06-28T09:23:31.524Z,39.18
2017-06-28T09:24:31.565Z,39
2017-06-28T09:25:31.651Z,39.12
2017-06-28T09:26:31.659Z,39.78
2017-06-28T09:27:31.731Z,39.78
2017-06-28T09:28:31.753Z,40.19
2017-06-28T09:29:31.823Z,39.99
2017-06-28T09:30:31.867Z,39.4
2017-06-28T09:31:31.884Z,39
2017-06-28T09:32:31.939Z,38.76
2017-06-28T09:33:31.999Z,38.75
2017-06-28T09:34:32.036Z,38.55
2017-06-28T09:35:32.076Z,39.52
2017-06-28T09:36:32.135Z,38.92
2017-06-28T09:37:32.195Z,38.98
2017-06-28T09:38:32.224Z,38.89
2017-06-28T09:39:32.274Z,38.23
2017-06-28T09:40:32.362Z,37.6
2017-06-28T09:41:32.391Z,37.71
2017-06-28T09:42:32.435Z,37.49
2017-06-28T09:43:32.487Z,38.49
2017-06-28T09:44:32.507Z,39.43
2017-06-28T09:45:32.566Z,40.74
2017-06-28T09:46:32.654Z,42.07
2017-06-28T09:47:32.701Z,41.65
2017-06-28T09:48:32.704Z,41.75
2017-06-28T09:49:32.782Z,40.69
2017-06-28T09:50:32.819Z,40.41
2017-06-28T09:51:32.875Z,40.15
2017-06-28T09:52:32.889Z,39.48
2017-06-28T09:53:33.019Z,39.79
2017-06-28T09:54:33.030Z,41.16
2017-06-28T09:55:33.044Z,42.08
2017-06-28T09:56:33.089Z,42.34
2017-06-28T09:57:33.148Z,42.73
2017-06-28T09:58:33.199Z,42.81
2017-06-28T09:59:33.283Z,42.69
2017-06-28T10:00:33.306Z,43.28
2017-06-28T10:01:33.314Z,42.89
2017-06-28T10:02:33.385Z,42.34
2017-06-28T10:03:33.452Z,41.94
2017-06-28T10:04:33.485Z,41.59
2017-06-28T10:05:33.550Z,42.85
2017-06-28T10:06:33.598Z,44.24
2017-06-28T10:07:33.619Z,44.2
2017-06-28T10:08:33.670Z,44.62
2017-06-28T10:09:33.738Z,45.3
2017-06-28T10:10:33.752Z,46.22
2017-06-28T10:11:33.806Z,46.47
2017-06-28T10:12:33.871Z,46.78
2017-06-28T10:13:33.875Z,47.81
2017-06-28T10:14:33.947Z,47.79
2017-06-28T10:15:33.968Z,47.69
2017-06-28T10:16:34.015Z,47.72
2017-06-28T10:17:34.084Z,47.5
2017-06-28T10:18:34.103Z,46.76
2017-06-28T10:19:34.157Z,46.98
2017-06-28T10:20:34.213Z,45.9
2017-06-28T10:21:34.280Z,45.24
2017-06-28T10:22:34.281Z,44.32
2017-06-28T10:23:34.376Z,43.18
2017-06-28T10:24:34.394Z,42.54
2017-06-28T10:25:34.464Z,41.89
2017-06-28T10:26:34.463Z,40.64
2017-06-28T10:27:34.553Z,40.19
2017-06-28T10:28:34.555Z,40.01
2017-06-28T10:29:34.596Z,39.73
2017-06-28T10:30:34.646Z,39.56
2017-06-28T10:31:34.685Z,39.16
2017-06-28T10:32:34.757Z,39.65
2017-06-28T10:33:34.803Z,40.88
2017-06-28T10:34:34.869Z,42.02
2017-06-28T10:35:34.875Z,42.4
2017-06-28T10:36:34.932Z,44.8
2017-06-28T10:37:34.986Z,46.36
2017-06-28T10:38:35.039Z,46.2
2017-06-28T10:39:35.061Z,45.48
2017-06-28T10:40:35.137Z,44.73
2017-06-28T10:41:35.158Z,43.5
2017-06-28T10:42:35.162Z,43.52
2017-06-28T10:43:35.277Z,44.23
2017-06-28T10:44:35.276Z,44.58
2017-06-28T10:45:35.352Z,45.62
2017-06-28T10:46:35.367Z,46.26
2017-06-28T10:47:35.402Z,46.69
2017-06-28T10:48:35.462Z,47.2
2017-06-28T10:49:35.517Z,47.94
2017-06-28T10:50:35.528Z,47.13
2017-06-28T10:51:35.594Z,46.41
2017-06-28T10:52:35.656Z,45.67
2017-06-28T10:53:35.682Z,43.97
2017-06-28T10:54:35.704Z,43.82
2017-06-28T10:55:35.761Z,42.18
2017-06-28T10:56:35.805Z,42
2017-06-28T10:57:35.853Z,41.91
2017-06-28T10:58:35.898Z,41.71
2017-06-28T10:59:35.918Z,40.86
2017-06-28T11:00:35.980Z,40.88
2017-06-28T11:01:36.054Z,40.88
2017-06-28T11:02:36.041Z,40.8
2017-06-28T11:03:36.096Z,42.14
2017-06-28T11:04:36.120Z,42
2017-06-28T11:05:36.175Z,42.1
2017-06-28T11:06:36.226Z,42.02
2017-06-28T11:07:36.294Z,42.4
2017-06-28T11:08:36.294Z,42.5
2017-06-28T11:09:36.352Z,42.68
2017-06-28T11:10:36.370Z,43.42
2017-06-28T11:11:36.414Z,44.78
2017-06-28T11:12:36.476Z,45.42
2017-06-28T11:13:36.500Z,45.89
2017-06-28T11:14:36.533Z,45.6
2017-06-28T11:15:36.596Z,45.2
2017-06-28T11:16:36.646Z,44.73
2017-06-28T11:17:36.685Z,44.73
2017-06-28T11:18:36.725Z,44.93
2017-06-28T11:19:36.750Z,44.73
2017-06-28T11:20:36.781Z,44.64
2017-06-28T11:21:36.857Z,43.48
2017-06-28T11:22:36.882Z,44.26
2017-06-28T11:23:36.906Z,43.5
2017-06-28T11:24:36.977Z,43.5
2017-06-28T11:25:36.992Z,45.52
2017-06-28T11:26:37.076Z,46.53
2017-06-28T11:27:37.096Z,46.78
2017-06-28T11:28:37.144Z,46.2
2017-06-28T11:29:37.177Z,45.48
2017-06-28T11:30:37.216Z,44.81
2017-06-28T11:31:37.287Z,45.1
2017-06-28T11:32:37.292Z,45.42
2017-06-28T11:33:37.341Z,46.17
2017-06-28T11:34:37.377Z,47.37
2017-06-28T11:35:37.412Z,49.26
2017-06-28T11:36:37.442Z,50.85
2017-06-28T11:37:37.522Z,52.27
2017-06-28T11:38:37.527Z,53.58
2017-06-28T11:39:37.588Z,54.83
2017-06-28T11:40:37.643Z,55.75
2017-06-28T11:41:37.664Z,56.14
2017-06-28T11:42:37.681Z,56.5
2017-06-28T11:43:37.751Z,57.09
2017-06-28T11:44:37.788Z,57.93
2017-06-28T11:45:37.857Z,58.03
2017-06-28T11:46:37.891Z,57.81
2017-06-28T11:47:37.895Z,58.59
2017-06-28T11:48:37.927Z,58.78
2017-06-28T11:49:37.993Z,59.56
2017-06-28T11:50:38.050Z,59.36
2017-06-28T11:51:38.081Z,59.63
2017-06-28T11:52:38.095Z,59.72
2017-06-28T11:53:38.158Z,60.11
2017-06-28T11:54:38.172Z,60.6
2017-06-28T11:55:38.231Z,60.02
2017-06-28T11:56:38.294Z,60.63
2017-06-28T11:57:38.278Z,59.66
2017-06-28T11:58:38.353Z,58.59
2017-06-28T11:59:38.371Z,58.91
2017-06-28T12:00:38.437Z,59.17
2017-06-28T12:01:38.478Z,59.66
2017-06-28T12:02:38.514Z,59.56
2017-06-28T12:03:38.580Z,59.46
2017-06-28T12:04:38.577Z,59.07
2017-06-28T12:05:38.656Z,59.95
2017-06-28T12:06:38.676Z,60.53
2017-06-28T12:07:38.699Z,60.79
2017-06-28T12:08:38.753Z,61.08
2017-06-28T12:09:38.781Z,61.47
2017-06-28T12:10:38.812Z,61.38
2017-06-28T12:11:38.883Z,60.79
2017-06-28T12:12:38.914Z,60.7
2017-06-28T12:13:38.935Z,61.08
2017-06-28T12:14:38.976Z,61.18
2017-06-28T12:15:39.020Z,61.74
2017-06-28T12:16:39.057Z,61.93
2017-06-28T12:17:39.138Z,61.44
2017-06-28T12:18:39.132Z,61.57
2017-06-28T12:19:39.194Z,61.18
2017-06-28T12:20:39.238Z,60.89
2017-06-28T12:21:39.260Z,60.79
2017-06-28T12:22:39.299Z,61.38
2017-06-28T12:23:39.356Z,61.47
2017-06-28T12:24:39.376Z,61.57
2017-06-28T12:25:39.418Z,61.47
2017-06-28T12:26:39.457Z,62.23
2017-06-28T12:27:39.502Z,61.93
2017-06-28T12:28:39.540Z,62.03
2017-06-28T12:29:39.595Z,62.23
2017-06-28T12:30:39.640Z,62.71
2017-06-28T12:31:39.666Z,62.87
2017-06-28T12:32:39.701Z,63.07
2017-06-28T12:33:39.735Z,63.17
2017-06-28T12:34:39.777Z,63.07
2017-06-28T12:35:39.860Z,62.87
2017-06-28T12:36:39.882Z,62.87
2017-06-28T12:37:39.921Z,62.77
2017-06-28T12:38:39.963Z,63
2017-06-28T12:39:40.004Z,63
2017-06-28T12:40:40.035Z,62.9
2017-06-28T12:41:40.066Z,63
2017-06-28T12:42:40.115Z,63.59
2017-06-28T12:43:40.161Z,63.2
2017-06-28T12:44:40.196Z,63.68
2017-06-28T12:45:40.441Z,63
2017-06-28T12:46:40.254Z,63.2
2017-06-28T12:47:40.320Z,62.87
2017-06-28T12:48:40.364Z,63.49
2017-06-28T12:49:40.372Z,63.59
2017-06-28T12:50:40.460Z,63.68
2017-06-28T12:51:40.478Z,63.29
2017-06-28T12:52:40.525Z,63.26
2017-06-28T12:53:40.556Z,63.84
2017-06-28T12:54:40.597Z,64.23
2017-06-28T12:55:40.616Z,63.94
2017-06-28T12:56:40.680Z,64.33